sensor_id;sensor_type;location;lat;lon;timestamp;pressure;altitude;pressure_sealevel;temperature;humidity
72171;BME280;60063;59.842;17.604;2022-07-10T00:00:55;100565.84;;;17.66;47.34
72171;BME280;60063;59.842;17.604;2022-07-10T00:03:23;100573.03;;;17.67;47.53
72171;BME280;60063;59.842;17.604;2022-07-10T00:05:49;100570.25;;;17.67;47.47
72171;BME280;60063;59.842;17.604;2022-07-10T00:08:14;100567.50;;;17.67;47.48
72171;BME280;60063;59.842;17.604;2022-07-10T00:10:39;100566.66;;;17.66;47.61
72171;BME280;60063;59.842;17.604;2022-07-10T00:13:05;100566.19;;;17.64;47.54
72171;BME280;60063;59.842;17.604;2022-07-10T00:15:30;100564.53;;;17.63;47.77
72171;BME280;60063;59.842;17.604;2022-07-10T00:17:57;100557.03;;;17.64;47.93
72171;BME280;60063;59.842;17.604;2022-07-10T00:20:22;100559.28;;;17.62;48.01
72171;BME280;60063;59.842;17.604;2022-07-10T00:22:48;100562.69;;;17.59;48.09
72171;BME280;60063;59.842;17.604;2022-07-10T00:25:13;100560.25;;;17.57;48.29
72171;BME280;60063;59.842;17.604;2022-07-10T00:27:39;100558.09;;;17.54;48.28
72171;BME280;60063;59.842;17.604;2022-07-10T00:30:05;100559.53;;;17.51;48.13
72171;BME280;60063;59.842;17.604;2022-07-10T00:32:30;100558.22;;;17.49;48.04
72171;BME280;60063;59.842;17.604;2022-07-10T00:34:55;100555.25;;;17.45;48.13
72171;BME280;60063;59.842;17.604;2022-07-10T00:37:21;100567.78;;;17.43;48.21
72171;BME280;60063;59.842;17.604;2022-07-10T00:39:46;100563.69;;;17.40;48.49
72171;BME280;60063;59.842;17.604;2022-07-10T00:42:12;100559.28;;;17.39;48.44
72171;BME280;60063;59.842;17.604;2022-07-10T00:44:38;100565.94;;;17.38;48.46
72171;BME280;60063;59.842;17.604;2022-07-10T00:47:04;100564.81;;;17.39;48.57
72171;BME280;60063;59.842;17.604;2022-07-10T00:49:30;100562.03;;;17.39;48.64
72171;BME280;60063;59.842;17.604;2022-07-10T00:51:55;100558.47;;;17.38;48.50
72171;BME280;60063;59.842;17.604;2022-07-10T00:54:22;100567.56;;;17.39;48.54
72171;BME280;60063;59.842;17.604;2022-07-10T00:56:48;100565.94;;;17.38;48.68
72171;BME280;60063;59.842;17.604;2022-07-10T00:59:13;100566.78;;;17.38;48.72
72171;BME280;60063;59.842;17.604;2022-07-10T01:01:38;100573.13;;;17.39;48.77
72171;BME280;60063;59.842;17.604;2022-07-10T01:04:04;100564.00;;;17.38;48.47
72171;BME280;60063;59.842;17.604;2022-07-10T01:06:32;100565.94;;;17.38;48.71
72171;BME280;60063;59.842;17.604;2022-07-10T01:08:57;100563.50;;;17.36;48.81
72171;BME280;60063;59.842;17.604;2022-07-10T01:11:23;100572.91;;;17.35;48.80
72171;BME280;60063;59.842;17.604;2022-07-10T01:13:48;100564.09;;;17.33;48.82
72171;BME280;60063;59.842;17.604;2022-07-10T01:16:13;100561.44;;;17.28;49.01
72171;BME280;60063;59.842;17.604;2022-07-10T01:18:39;100569.47;;;17.30;48.86
72171;BME280;60063;59.842;17.604;2022-07-10T01:21:04;100571.41;;;17.29;48.73
72171;BME280;60063;59.842;17.604;2022-07-10T01:23:30;100571.72;;;17.28;48.85
72171;BME280;60063;59.842;17.604;2022-07-10T01:25:55;100572.03;;;17.26;48.73
72171;BME280;60063;59.842;17.604;2022-07-10T01:28:21;100565.66;;;17.26;48.83
72171;BME280;60063;59.842;17.604;2022-07-10T01:30:49;100570.38;;;17.25;48.91
72171;BME280;60063;59.842;17.604;2022-07-10T01:33:14;100566.78;;;17.25;48.79
72171;BME280;60063;59.842;17.604;2022-07-10T01:35:40;100565.97;;;17.24;48.75
72171;BME280;60063;59.842;17.604;2022-07-10T01:38:06;100570.72;;;17.24;48.68
72171;BME280;60063;59.842;17.604;2022-07-10T01:40:32;100576.25;;;17.24;48.82
72171;BME280;60063;59.842;17.604;2022-07-10T01:42:57;100571.31;;;17.20;48.85
72171;BME280;60063;59.842;17.604;2022-07-10T01:45:23;100569.34;;;17.21;48.81
72171;BME280;60063;59.842;17.604;2022-07-10T01:47:48;100564.13;;;17.19;48.69
72171;BME280;60063;59.842;17.604;2022-07-10T01:50:14;100564.13;;;17.19;48.78
72171;BME280;60063;59.842;17.604;2022-07-10T01:52:39;100574.41;;;17.19;48.86
72171;BME280;60063;59.842;17.604;2022-07-10T01:55:05;100565.25;;;17.18;48.82
72171;BME280;60063;59.842;17.604;2022-07-10T01:57:30;100565.25;;;17.18;48.78
72171;BME280;60063;59.842;17.604;2022-07-10T01:59:55;100568.03;;;17.18;48.65
72171;BME280;60063;59.842;17.604;2022-07-10T02:02:21;100566.41;;;17.17;48.95
72171;BME280;60063;59.842;17.604;2022-07-10T02:04:46;100561.69;;;17.18;48.86
72171;BME280;60063;59.842;17.604;2022-07-10T02:07:16;100570.31;;;17.16;48.73
72171;BME280;60063;59.842;17.604;2022-07-10T02:09:41;100570.31;;;17.16;48.64
72171;BME280;60063;59.842;17.604;2022-07-10T02:12:07;100564.25;;;17.14;48.74
72171;BME280;60063;59.842;17.604;2022-07-10T02:14:33;100567.84;;;17.15;48.77
72171;BME280;60063;59.842;17.604;2022-07-10T02:16:58;100563.44;;;17.14;48.63
72171;BME280;60063;59.842;17.604;2022-07-10T02:19:23;100559.03;;;17.13;48.56
72171;BME280;60063;59.842;17.604;2022-07-10T02:21:49;100560.97;;;17.12;48.62
72171;BME280;60063;59.842;17.604;2022-07-10T02:24:14;100565.38;;;17.13;48.67
72171;BME280;60063;59.842;17.604;2022-07-10T02:26:39;100559.66;;;17.10;48.65
72171;BME280;60063;59.842;17.604;2022-07-10T02:29:05;100569.28;;;17.12;48.48
72171;BME280;60063;59.842;17.604;2022-07-10T02:31:30;100567.63;;;17.11;48.71
72171;BME280;60063;59.842;17.604;2022-07-10T02:33:55;100564.88;;;17.11;48.58
72171;BME280;60063;59.842;17.604;2022-07-10T02:36:20;100571.56;;;17.10;48.55
72171;BME280;60063;59.842;17.604;2022-07-10T02:38:46;100573.81;;;17.08;48.67
72171;BME280;60063;59.842;17.604;2022-07-10T02:41:11;100562.72;;;17.08;48.75
72171;BME280;60063;59.842;17.604;2022-07-10T02:43:37;100563.84;;;17.07;48.65
72171;BME280;60063;59.842;17.604;2022-07-10T02:46:02;100560.56;;;17.05;48.70
72171;BME280;60063;59.842;17.604;2022-07-10T02:48:28;100562.00;;;17.02;48.81
72171;BME280;60063;59.842;17.604;2022-07-10T02:50:53;100568.50;;;16.98;48.81
72171;BME280;60063;59.842;17.604;2022-07-10T02:53:18;100570.94;;;16.99;48.72
72171;BME280;60063;59.842;17.604;2022-07-10T02:55:44;100574.84;;;16.98;48.92
72171;BME280;60063;59.842;17.604;2022-07-10T02:58:10;100572.06;;;16.98;48.86
72171;BME280;60063;59.842;17.604;2022-07-10T03:00:35;100571.25;;;16.98;48.79
72171;BME280;60063;59.842;17.604;2022-07-10T03:03:01;100574.84;;;16.98;48.94
72171;BME280;60063;59.842;17.604;2022-07-10T03:05:26;100565.41;;;16.99;48.78
72171;BME280;60063;59.842;17.604;2022-07-10T03:07:51;100571.75;;;17.00;48.65
72171;BME280;60063;59.842;17.604;2022-07-10T03:10:17;100570.63;;;17.01;48.76
72171;BME280;60063;59.842;17.604;2022-07-10T03:12:42;100563.97;;;17.02;48.95
72171;BME280;60063;59.842;17.604;2022-07-10T03:15:08;100565.63;;;17.03;49.00
72171;BME280;60063;59.842;17.604;2022-07-10T03:17:36;100560.88;;;17.03;49.07
72171;BME280;60063;59.842;17.604;2022-07-10T03:20:02;100573.59;;;17.04;48.96
72171;BME280;60063;59.842;17.604;2022-07-10T03:22:27;100557.31;;;17.03;48.81
72171;BME280;60063;59.842;17.604;2022-07-10T03:24:53;100563.66;;;17.03;48.55
72171;BME280;60063;59.842;17.604;2022-07-10T03:27:18;100562.84;;;17.03;48.66
72171;BME280;60063;59.842;17.604;2022-07-10T03:29:44;100568.06;;;17.04;48.99
72171;BME280;60063;59.842;17.604;2022-07-10T03:32:09;100561.41;;;17.05;48.84
72171;BME280;60063;59.842;17.604;2022-07-10T03:34:34;100569.38;;;17.07;48.87
72171;BME280;60063;59.842;17.604;2022-07-10T03:37:00;100565.81;;;17.06;48.68
72171;BME280;60063;59.842;17.604;2022-07-10T03:39:25;100572.16;;;17.07;48.85
72171;BME280;60063;59.842;17.604;2022-07-10T03:41:51;100568.88;;;17.05;48.58
72171;BME280;60063;59.842;17.604;2022-07-10T03:44:16;100572.78;;;17.04;48.71
72171;BME280;60063;59.842;17.604;2022-07-10T03:46:41;100571.16;;;17.03;48.82
72171;BME280;60063;59.842;17.604;2022-07-10T03:49:06;100566.22;;;17.00;48.88
72171;BME280;60063;59.842;17.604;2022-07-10T03:51:32;100570.75;;;16.96;48.90
72171;BME280;60063;59.842;17.604;2022-07-10T03:53:57;100577.72;;;16.93;48.81
72171;BME280;60063;59.842;17.604;2022-07-10T03:56:22;100571.94;;;16.89;49.05
72171;BME280;60063;59.842;17.604;2022-07-10T03:59:06;100572.53;;;16.86;49.22
72171;BME280;60063;59.842;17.604;2022-07-10T04:01:31;100566.53;;;16.84;49.01
72171;BME280;60063;59.842;17.604;2022-07-10T04:03:57;100565.69;;;16.84;49.16
72171;BME280;60063;59.842;17.604;2022-07-10T04:06:22;100571.53;;;16.82;48.97
72171;BME280;60063;59.842;17.604;2022-07-10T04:08:47;100567.44;;;16.80;48.99
72171;BME280;60063;59.842;17.604;2022-07-10T04:11:13;100573.56;;;16.77;49.17
72171;BME280;60063;59.842;17.604;2022-07-10T04:13:38;100571.44;;;16.73;49.21
72171;BME280;60063;59.842;17.604;2022-07-10T04:16:03;100571.75;;;16.72;49.02
72171;BME280;60063;59.842;17.604;2022-07-10T04:18:28;100573.47;;;16.68;49.22
72171;BME280;60063;59.842;17.604;2022-07-10T04:20:54;100572.66;;;16.67;49.15
72171;BME280;60063;59.842;17.604;2022-07-10T04:23:22;100572.16;;;16.65;49.34
72171;BME280;60063;59.842;17.604;2022-07-10T04:25:47;100570.50;;;16.64;49.17
72171;BME280;60063;59.842;17.604;2022-07-10T04:28:12;100568.88;;;16.63;49.23
72171;BME280;60063;59.842;17.604;2022-07-10T04:30:37;100562.53;;;16.63;49.32
72171;BME280;60063;59.842;17.604;2022-07-10T04:33:03;100575.53;;;16.62;49.60
72171;BME280;60063;59.842;17.604;2022-07-10T04:35:28;100567.56;;;16.61;49.11
72171;BME280;60063;59.842;17.604;2022-07-10T04:37:53;100571.94;;;16.62;49.34
72171;BME280;60063;59.842;17.604;2022-07-10T04:40:19;100566.72;;;16.60;49.25
72171;BME280;60063;59.842;17.604;2022-07-10T04:42:44;100571.94;;;16.62;49.25
72171;BME280;60063;59.842;17.604;2022-07-10T04:45:09;100569.50;;;16.60;49.41
72171;BME280;60063;59.842;17.604;2022-07-10T04:47:35;100567.56;;;16.61;48.91
72171;BME280;60063;59.842;17.604;2022-07-10T04:50:00;100567.84;;;16.59;49.03
72171;BME280;60063;59.842;17.604;2022-07-10T04:52:25;100580.53;;;16.60;49.39
72171;BME280;60063;59.842;17.604;2022-07-10T04:54:51;100583.31;;;16.60;49.22
72171;BME280;60063;59.842;17.604;2022-07-10T04:57:16;100585.28;;;16.60;49.54
72171;BME280;60063;59.842;17.604;2022-07-10T04:59:41;100587.19;;;16.59;49.52
72171;BME280;60063;59.842;17.604;2022-07-10T05:02:06;100585.28;;;16.60;49.07
72171;BME280;60063;59.842;17.604;2022-07-10T05:04:33;100588.84;;;16.60;49.56
72171;BME280;60063;59.842;17.604;2022-07-10T05:07:01;100596.31;;;16.60;49.43
72171;BME280;60063;59.842;17.604;2022-07-10T05:09:26;100595.50;;;16.59;49.72
72171;BME280;60063;59.842;17.604;2022-07-10T05:11:51;100607.38;;;16.60;49.34
72171;BME280;60063;59.842;17.604;2022-07-10T05:14:17;100590.81;;;16.60;49.38
72171;BME280;60063;59.842;17.604;2022-07-10T05:16:42;100596.00;;;16.61;49.25
72171;BME280;60063;59.842;17.604;2022-07-10T05:19:07;100592.44;;;16.61;49.77
72171;BME280;60063;59.842;17.604;2022-07-10T05:21:33;100588.84;;;16.60;49.41
72171;BME280;60063;59.842;17.604;2022-07-10T05:23:58;100590.81;;;16.60;49.62
72171;BME280;60063;59.842;17.604;2022-07-10T05:26:24;100588.84;;;16.60;49.64
72171;BME280;60063;59.842;17.604;2022-07-10T05:28:49;100588.03;;;16.60;49.67
72171;BME280;60063;59.842;17.604;2022-07-10T05:31:14;100590.81;;;16.60;49.69
72171;BME280;60063;59.842;17.604;2022-07-10T05:33:39;100599.59;;;16.62;49.58
72171;BME280;60063;59.842;17.604;2022-07-10T05:36:05;100587.72;;;16.61;49.78
72171;BME280;60063;59.842;17.604;2022-07-10T05:38:31;100586.28;;;16.64;49.81
72171;BME280;60063;59.842;17.604;2022-07-10T05:40:56;100595.38;;;16.64;49.52
72171;BME280;60063;59.842;17.604;2022-07-10T05:43:21;100588.75;;;16.65;49.44
72171;BME280;60063;59.842;17.604;2022-07-10T05:45:46;100592.34;;;16.66;49.63
72171;BME280;60063;59.842;17.604;2022-07-10T05:48:12;100590.38;;;16.66;49.69
72171;BME280;60063;59.842;17.604;2022-07-10T05:50:37;100592.84;;;16.68;49.44
72171;BME280;60063;59.842;17.604;2022-07-10T05:53:03;100594.47;;;16.69;49.55
72171;BME280;60063;59.842;17.604;2022-07-10T05:55:28;100598.56;;;16.71;49.45
72171;BME280;60063;59.842;17.604;2022-07-10T05:57:53;100601.53;;;16.75;49.48
72171;BME280;60063;59.842;17.604;2022-07-10T06:00:19;100602.59;;;16.79;49.60
72171;BME280;60063;59.842;17.604;2022-07-10T06:02:47;100598.59;;;16.85;49.71
72171;BME280;60063;59.842;17.604;2022-07-10T06:05:13;100608.47;;;16.92;49.40
72171;BME280;60063;59.842;17.604;2022-07-10T06:07:38;100608.34;;;16.97;49.19
72171;BME280;60063;59.842;17.604;2022-07-10T06:10:03;100604.94;;;17.00;49.50
72171;BME280;60063;59.842;17.604;2022-07-10T06:12:29;100608.13;;;17.07;49.40
72171;BME280;60063;59.842;17.604;2022-07-10T06:14:54;100609.84;;;17.17;49.55
72171;BME280;60063;59.842;17.604;2022-07-10T06:17:19;100608.00;;;17.26;49.19
72171;BME280;60063;59.842;17.604;2022-07-10T06:19:45;100603.69;;;17.34;49.04
72171;BME280;60063;59.842;17.604;2022-07-10T06:22:10;100612.06;;;17.43;48.97
72171;BME280;60063;59.842;17.604;2022-07-10T06:24:54;100610.50;;;17.50;48.87
72171;BME280;60063;59.842;17.604;2022-07-10T06:27:19;100618.06;;;17.59;48.87
72171;BME280;60063;59.842;17.604;2022-07-10T06:29:46;100622.88;;;17.67;48.61
72171;BME280;60063;59.842;17.604;2022-07-10T06:32:11;100625.72;;;17.76;48.74
72171;BME280;60063;59.842;17.604;2022-07-10T06:34:37;100619.75;;;17.82;48.24
72171;BME280;60063;59.842;17.604;2022-07-10T06:37:02;100609.69;;;17.86;48.35
72171;BME280;60063;59.842;17.604;2022-07-10T06:39:28;100618.28;;;17.99;48.18
72171;BME280;60063;59.842;17.604;2022-07-10T06:41:56;100622.44;;;18.10;48.01
72171;BME280;60063;59.842;17.604;2022-07-10T06:44:21;100622.16;;;18.21;47.50
72171;BME280;60063;59.842;17.604;2022-07-10T06:46:47;100635.75;;;18.31;47.39
72171;BME280;60063;59.842;17.604;2022-07-10T06:49:32;100634.47;;;18.37;47.32
72171;BME280;60063;59.842;17.604;2022-07-10T06:51:57;100645.94;;;18.44;47.11
72171;BME280;60063;59.842;17.604;2022-07-10T06:54:22;100635.22;;;18.51;47.13
72171;BME280;60063;59.842;17.604;2022-07-10T06:56:48;100639.50;;;18.58;46.92
72171;BME280;60063;59.842;17.604;2022-07-10T06:59:13;100641.31;;;18.62;46.83
72171;BME280;60063;59.842;17.604;2022-07-10T07:01:38;100639.88;;;18.65;46.58
72171;BME280;60063;59.842;17.604;2022-07-10T07:04:04;100649.69;;;18.71;46.73
72171;BME280;60063;59.842;17.604;2022-07-10T07:06:29;100639.75;;;18.79;46.59
72171;BME280;60063;59.842;17.604;2022-07-10T07:08:54;100643.72;;;18.87;46.40
72171;BME280;60063;59.842;17.604;2022-07-10T07:11:19;100640.84;;;18.92;46.41
72171;BME280;60063;59.842;17.604;2022-07-10T07:13:45;100642.94;;;18.95;46.18
72171;BME280;60063;59.842;17.604;2022-07-10T07:16:10;100644.59;;;18.96;46.30
72171;BME280;60063;59.842;17.604;2022-07-10T07:18:38;100652.91;;;18.96;46.10
72171;BME280;60063;59.842;17.604;2022-07-10T07:21:12;100652.09;;;18.95;45.95
72171;BME280;60063;59.842;17.604;2022-07-10T07:23:56;100652.75;;;18.92;46.14
72171;BME280;60063;59.842;17.604;2022-07-10T07:26:21;100648.31;;;18.91;46.24
72171;BME280;60063;59.842;17.604;2022-07-10T07:28:46;100644.25;;;18.97;46.18
72171;BME280;60063;59.842;17.604;2022-07-10T07:31:12;100645.31;;;19.10;45.94
72171;BME280;60063;59.842;17.604;2022-07-10T07:33:37;100653.00;;;19.22;45.75
72171;BME280;60063;59.842;17.604;2022-07-10T07:36:03;100655.16;;;19.34;45.71
72171;BME280;60063;59.842;17.604;2022-07-10T07:38:28;100661.84;;;19.42;45.56
72171;BME280;60063;59.842;17.604;2022-07-10T07:40:53;100654.19;;;19.47;45.57
72171;BME280;60063;59.842;17.604;2022-07-10T07:43:19;100656.16;;;19.47;45.25
72171;BME280;60063;59.842;17.604;2022-07-10T07:45:44;100659.09;;;19.51;45.16
72171;BME280;60063;59.842;17.604;2022-07-10T07:48:09;100660.91;;;19.55;45.14
72171;BME280;60063;59.842;17.604;2022-07-10T07:50:35;100670.88;;;19.56;45.17
72171;BME280;60063;59.842;17.604;2022-07-10T07:53:01;100665.66;;;19.55;45.20
72171;BME280;60063;59.842;17.604;2022-07-10T07:55:27;100667.94;;;19.53;45.22
72171;BME280;60063;59.842;17.604;2022-07-10T07:57:53;100669.41;;;19.50;45.52
72171;BME280;60063;59.842;17.604;2022-07-10T08:00:19;100674.59;;;19.43;45.04
72171;BME280;60063;59.842;17.604;2022-07-10T08:02:47;100676.75;;;19.37;45.33
72171;BME280;60063;59.842;17.604;2022-07-10T08:05:12;100677.84;;;19.27;45.39
72171;BME280;60063;59.842;17.604;2022-07-10T08:07:38;100676.19;;;19.18;45.71
72171;BME280;60063;59.842;17.604;2022-07-10T08:10:05;100680.56;;;19.10;45.79
72171;BME280;60063;59.842;17.604;2022-07-10T08:12:32;100672.03;;;19.06;46.14
72171;BME280;60063;59.842;17.604;2022-07-10T08:14:57;100676.63;;;19.11;46.33
72171;BME280;60063;59.842;17.604;2022-07-10T08:17:23;100680.28;;;19.20;46.46
72171;BME280;60063;59.842;17.604;2022-07-10T08:19:48;100682.75;;;19.30;46.25
72171;BME280;60063;59.842;17.604;2022-07-10T08:22:14;100678.69;;;19.45;46.82
72171;BME280;60063;59.842;17.604;2022-07-10T08:24:39;100681.19;;;19.65;46.81
72171;BME280;60063;59.842;17.604;2022-07-10T08:27:04;100683.19;;;19.82;46.54
72171;BME280;60063;59.842;17.604;2022-07-10T08:29:37;100683.84;;;19.96;46.30
72171;BME280;60063;59.842;17.604;2022-07-10T08:32:02;100683.53;;;20.06;45.98
72171;BME280;60063;59.842;17.604;2022-07-10T08:34:27;100692.34;;;20.17;45.91
72171;BME280;60063;59.842;17.604;2022-07-10T08:36:54;100695.78;;;20.23;45.71
72171;BME280;60063;59.842;17.604;2022-07-10T08:39:20;100697.91;;;20.26;45.62
72171;BME280;60063;59.842;17.604;2022-07-10T08:41:47;100697.75;;;20.31;45.44
72171;BME280;60063;59.842;17.604;2022-07-10T08:44:15;100695.13;;;20.35;45.22
72171;BME280;60063;59.842;17.604;2022-07-10T08:46:40;100694.97;;;20.40;45.35
72171;BME280;60063;59.842;17.604;2022-07-10T08:49:08;100692.16;;;20.49;45.19
72171;BME280;60063;59.842;17.604;2022-07-10T08:51:36;100704.56;;;20.60;45.04
72171;BME280;60063;59.842;17.604;2022-07-10T08:54:05;100699.66;;;20.74;45.02
72171;BME280;60063;59.842;17.604;2022-07-10T08:56:31;100697.44;;;20.98;44.95
72171;BME280;60063;59.842;17.604;2022-07-10T08:58:57;100701.94;;;21.20;44.51
72171;BME280;60063;59.842;17.604;2022-07-10T09:01:24;100700.88;;;21.33;44.30
72171;BME280;60063;59.842;17.604;2022-07-10T09:03:52;100704.94;;;21.45;44.06
72171;BME280;60063;59.842;17.604;2022-07-10T09:06:18;100705.19;;;21.52;43.85
72171;BME280;60063;59.842;17.604;2022-07-10T09:08:57;100708.78;;;21.61;43.74
72171;BME280;60063;59.842;17.604;2022-07-10T09:11:22;100708.50;;;21.75;43.50
72171;BME280;60063;59.842;17.604;2022-07-10T09:13:54;100715.00;;;21.88;43.21
72171;BME280;60063;59.842;17.604;2022-07-10T09:16:23;100711.13;;;22.01;43.11
72171;BME280;60063;59.842;17.604;2022-07-10T09:18:48;100711.66;;;22.16;42.93
72171;BME280;60063;59.842;17.604;2022-07-10T09:21:14;100712.84;;;22.27;42.65
72171;BME280;60063;59.842;17.604;2022-07-10T09:23:39;100718.91;;;22.29;42.57
72171;BME280;60063;59.842;17.604;2022-07-10T09:26:05;100728.78;;;22.27;42.48
72171;BME280;60063;59.842;17.604;2022-07-10T09:28:30;100726.22;;;22.22;42.32
72171;BME280;60063;59.842;17.604;2022-07-10T09:30:55;100726.06;;;22.18;42.46
72171;BME280;60063;59.842;17.604;2022-07-10T09:38:48;100726.13;;;22.97;42.21
72171;BME280;60063;59.842;17.604;2022-07-10T09:41:22;100722.34;;;24.46;40.61
72171;BME280;60063;59.842;17.604;2022-07-10T09:43:48;100727.72;;;26.34;39.00
72171;BME280;60063;59.842;17.604;2022-07-10T09:46:14;100723.25;;;28.30;35.72
72171;BME280;60063;59.842;17.604;2022-07-10T09:48:40;100730.09;;;30.19;33.26
72171;BME280;60063;59.842;17.604;2022-07-10T09:51:06;100729.88;;;30.86;32.21
72171;BME280;60063;59.842;17.604;2022-07-10T09:53:34;100727.41;;;30.55;31.66
72171;BME280;60063;59.842;17.604;2022-07-10T09:56:01;100731.25;;;30.11;32.02
72171;BME280;60063;59.842;17.604;2022-07-10T09:58:27;100730.09;;;29.52;32.44
72171;BME280;60063;59.842;17.604;2022-07-10T10:00:54;100738.38;;;28.86;32.58
72171;BME280;60063;59.842;17.604;2022-07-10T10:03:20;100734.78;;;28.17;33.35
72171;BME280;60063;59.842;17.604;2022-07-10T10:05:56;100742.34;;;27.56;33.60
72171;BME280;60063;59.842;17.604;2022-07-10T10:10:49;100741.53;;;26.43;34.82
72171;BME280;60063;59.842;17.604;2022-07-10T10:13:21;100736.00;;;25.91;34.72
72171;BME280;60063;59.842;17.604;2022-07-10T10:15:47;100737.66;;;25.40;35.30
72171;BME280;60063;59.842;17.604;2022-07-10T10:18:15;100741.78;;;24.99;35.99
72171;BME280;60063;59.842;17.604;2022-07-10T10:20:41;100740.34;;;24.60;36.42
72171;BME280;60063;59.842;17.604;2022-07-10T10:23:13;100739.06;;;24.30;36.75
72171;BME280;60063;59.842;17.604;2022-07-10T10:25:38;100747.09;;;24.03;36.78
72171;BME280;60063;59.842;17.604;2022-07-10T10:28:10;100747.81;;;23.75;37.34
72171;BME280;60063;59.842;17.604;2022-07-10T10:30:37;100746.56;;;23.47;37.78
72171;BME280;60063;59.842;17.604;2022-07-10T10:33:03;100749.22;;;23.19;37.96
72171;BME280;60063;59.842;17.604;2022-07-10T10:35:41;100752.41;;;22.96;38.22
72171;BME280;60063;59.842;17.604;2022-07-10T10:38:07;100756.09;;;22.76;38.68
72171;BME280;60063;59.842;17.604;2022-07-10T10:40:33;100752.31;;;22.59;39.23
72171;BME280;60063;59.842;17.604;2022-07-10T10:42:58;100762.97;;;22.45;39.47
72171;BME280;60063;59.842;17.604;2022-07-10T10:45:40;100764.84;;;22.32;39.47
72171;BME280;60063;59.842;17.604;2022-07-10T10:48:06;100762.19;;;22.14;39.98
72171;BME280;60063;59.842;17.604;2022-07-10T10:50:41;100767.56;;;21.98;40.03
72171;BME280;60063;59.842;17.604;2022-07-10T10:53:13;100778.50;;;21.82;40.54
72171;BME280;60063;59.842;17.604;2022-07-10T10:55:39;100774.19;;;21.64;41.03
72171;BME280;60063;59.842;17.604;2022-07-10T10:58:14;100777.97;;;21.50;41.29
72171;BME280;60063;59.842;17.604;2022-07-10T11:00:39;100775.44;;;21.36;41.69
72171;BME280;60063;59.842;17.604;2022-07-10T11:03:11;100780.19;;;21.27;41.96
72171;BME280;60063;59.842;17.604;2022-07-10T11:08:03;100784.50;;;21.16;42.48
72171;BME280;60063;59.842;17.604;2022-07-10T11:12:58;100783.06;;;21.10;42.69
72171;BME280;60063;59.842;17.604;2022-07-10T11:15:23;100785.84;;;21.10;42.89
72171;BME280;60063;59.842;17.604;2022-07-10T11:17:50;100793.69;;;21.07;43.04
72171;BME280;60063;59.842;17.604;2022-07-10T11:20:15;100793.22;;;21.05;43.14
72171;BME280;60063;59.842;17.604;2022-07-10T11:25:31;100798.50;;;20.98;43.49
72171;BME280;60063;59.842;17.604;2022-07-10T11:28:07;100794.25;;;20.92;43.49
72171;BME280;60063;59.842;17.604;2022-07-10T11:30:49;100801.13;;;20.86;43.68
72171;BME280;60063;59.842;17.604;2022-07-10T11:33:15;100804.09;;;20.81;43.80
72171;BME280;60063;59.842;17.604;2022-07-10T11:35:44;100799.84;;;20.74;44.46
72171;BME280;60063;59.842;17.604;2022-07-10T11:38:09;100802.44;;;20.71;44.47
72171;BME280;60063;59.842;17.604;2022-07-10T11:40:37;100810.28;;;20.69;44.39
72171;BME280;60063;59.842;17.604;2022-07-10T11:43:03;100806.69;;;20.68;44.38
72171;BME280;60063;59.842;17.604;2022-07-10T11:45:32;100806.69;;;20.68;44.48
72171;BME280;60063;59.842;17.604;2022-07-10T11:47:58;100811.63;;;20.71;44.66
72171;BME280;60063;59.842;17.604;2022-07-10T11:50:24;100806.22;;;20.75;44.78
72171;BME280;60063;59.842;17.604;2022-07-10T11:52:51;100808.81;;;20.80;44.69
72171;BME280;60063;59.842;17.604;2022-07-10T11:55:18;100810.28;;;20.86;44.71
72171;BME280;60063;59.842;17.604;2022-07-10T11:57:44;100814.88;;;20.91;44.65
72171;BME280;60063;59.842;17.604;2022-07-10T12:00:23;100813.88;;;20.96;44.66
72171;BME280;60063;59.842;17.604;2022-07-10T12:02:49;100821.72;;;21.02;44.64
72171;BME280;60063;59.842;17.604;2022-07-10T12:08:10;100819.25;;;21.10;44.52
72171;BME280;60063;59.842;17.604;2022-07-10T12:10:36;100818.59;;;21.21;44.60
72171;BME280;60063;59.842;17.604;2022-07-10T12:15:33;100817.44;;;21.70;44.42
72171;BME280;60063;59.842;17.604;2022-07-10T12:17:58;100816.31;;;21.92;44.20
72171;BME280;60063;59.842;17.604;2022-07-10T12:20:23;100822.94;;;22.09;43.61
72171;BME280;60063;59.842;17.604;2022-07-10T12:22:49;100819.63;;;22.15;43.48
72171;BME280;60063;59.842;17.604;2022-07-10T12:25:14;100824.38;;;22.15;43.23
72171;BME280;60063;59.842;17.604;2022-07-10T12:27:43;100823.56;;;22.14;43.14
72171;BME280;60063;59.842;17.604;2022-07-10T12:30:08;100819.00;;;22.10;43.21
72171;BME280;60063;59.842;17.604;2022-07-10T12:32:34;100822.13;;;22.08;43.20
72171;BME280;60063;59.842;17.604;2022-07-10T12:34:59;100819.81;;;22.10;43.27
72171;BME280;60063;59.842;17.604;2022-07-10T12:37:24;100826.69;;;22.13;43.28
72171;BME280;60063;59.842;17.604;2022-07-10T12:39:50;100822.06;;;22.17;42.97
72171;BME280;60063;59.842;17.604;2022-07-10T12:42:30;100827.31;;;22.18;42.75
72171;BME280;60063;59.842;17.604;2022-07-10T12:45:14;100832.06;;;22.18;42.73
72171;BME280;60063;59.842;17.604;2022-07-10T12:47:43;100831.72;;;22.19;42.55
72171;BME280;60063;59.842;17.604;2022-07-10T12:50:10;100824.66;;;22.22;42.61
72171;BME280;60063;59.842;17.604;2022-07-10T12:52:35;100826.78;;;22.25;42.72
72171;BME280;60063;59.842;17.604;2022-07-10T12:55:11;100824.28;;;22.32;42.55
72171;BME280;60063;59.842;17.604;2022-07-10T13:00:17;100826.47;;;22.48;42.43